VJT569 EGLF-EGGW
Flight info
| Callsign | VJT569 |
|---|---|
| Flight time | 0h 18m |
| Altitude | 8000 |
| Route | HAZEL DCT SAM/N0286F090 Q41 SILVA |
| Aircraft | CL60/M-SBDE1E2E3FGHIJ1J4J5J7M3RWXYZ/LB1V1D1 |
Departure
| Time | 2026-04-26 20:10 |
|---|---|
| Airport | Farnborough Airport (EGLF) |
Arrival
| Time | 2026-04-26 20:28 |
|---|---|
| Airport | London Luton Airport (EGGW) |
| Time | Latitude | Longitude | Altitude | Speed | Heading |
|---|---|---|---|---|---|
| 2026-04-26 19:48 | 51.28158 | -0.77650 | 241 ft | 0 kts | 304° |
| 2026-04-26 20:04 | 51.28170 | -0.77681 | 241 ft | 5 kts | 295° |
| 2026-04-26 20:04 | 51.28151 | -0.77741 | 241 ft | 9 kts | 213° |
| 2026-04-26 20:04 | 51.28108 | -0.77790 | 241 ft | 8 kts | 216° |
| 2026-04-26 20:04 | 51.28068 | -0.77835 | 241 ft | 13 kts | 215° |
| 2026-04-26 20:05 | 51.28064 | -0.77840 | 241 ft | 13 kts | 214° |
| 2026-04-26 20:05 | 51.28060 | -0.77844 | 241 ft | 14 kts | 212° |
| 2026-04-26 20:05 | 51.27995 | -0.77893 | 241 ft | 19 kts | 200° |
| 2026-04-26 20:05 | 51.27875 | -0.77960 | 241 ft | 12 kts | 212° |
| 2026-04-26 20:06 | 51.27798 | -0.78049 | 241 ft | 15 kts | 215° |
| 2026-04-26 20:06 | 51.27720 | -0.78137 | 241 ft | 17 kts | 214° |
| 2026-04-26 20:06 | 51.27653 | -0.78235 | 241 ft | 14 kts | 238° |
| 2026-04-26 20:06 | 51.27560 | -0.78376 | 241 ft | 22 kts | 219° |
| 2026-04-26 20:07 | 51.27433 | -0.78552 | 241 ft | 25 kts | 221° |
| 2026-04-26 20:07 | 51.27326 | -0.78704 | 241 ft | 14 kts | 228° |
| 2026-04-26 20:07 | 51.27269 | -0.78865 | 241 ft | 20 kts | 242° |
| 2026-04-26 20:07 | 51.27203 | -0.79064 | 241 ft | 15 kts | 242° |
| 2026-04-26 20:08 | 51.27176 | -0.79145 | 241 ft | 10 kts | 239° |
| 2026-04-26 20:08 | 51.27106 | -0.79160 | 241 ft | 7 kts | 147° |
| 2026-04-26 20:08 | 51.27084 | -0.79111 | 241 ft | 3 kts | 62° |
| 2026-04-26 20:08 | 51.27088 | -0.79099 | 241 ft | 0 kts | 60° |
| 2026-04-26 20:09 | 51.27094 | -0.79084 | 241 ft | 14 kts | 60° |
| 2026-04-26 20:09 | 51.27355 | -0.78301 | 241 ft | 137 kts | 62° |
| 2026-04-26 20:10 | 51.27893 | -0.76696 | 792 ft | 183 kts | 62° |
| 2026-04-26 20:10 | 51.28527 | -0.74853 | 1931 ft | 196 kts | 61° |
| 2026-04-26 20:10 | 51.29110 | -0.73181 | 2810 ft | 171 kts | 61° |
| 2026-04-26 20:10 | 51.29740 | -0.71318 | 2994 ft | 212 kts | 62° |
| 2026-04-26 20:11 | 51.30120 | -0.69328 | 3001 ft | 210 kts | 86° |
| 2026-04-26 20:11 | 51.29815 | -0.66978 | 3019 ft | 214 kts | 117° |
| 2026-04-26 20:11 | 51.28816 | -0.65305 | 3021 ft | 217 kts | 146° |
| 2026-04-26 20:12 | 51.25973 | -0.63780 | 3023 ft | 223 kts | 182° |
| 2026-04-26 20:12 | 51.24516 | -0.64490 | 3019 ft | 224 kts | 211° |
| 2026-04-26 20:12 | 51.23432 | -0.66288 | 3110 ft | 223 kts | 240° |
| 2026-04-26 20:12 | 51.22796 | -0.68199 | 3327 ft | 225 kts | 243° |
| 2026-04-26 20:13 | 51.22060 | -0.70440 | 3581 ft | 227 kts | 242° |
| 2026-04-26 20:13 | 51.21404 | -0.72502 | 3810 ft | 228 kts | 248° |
| 2026-04-26 20:13 | 51.21241 | -0.74968 | 4085 ft | 226 kts | 285° |
| 2026-04-26 20:13 | 51.22008 | -0.76988 | 4525 ft | 223 kts | 322° |
| 2026-04-26 20:14 | 51.23502 | -0.78217 | 5021 ft | 254 kts | 338° |
| 2026-04-26 20:14 | 51.25063 | -0.79327 | 5457 ft | 266 kts | 336° |
| 2026-04-26 20:14 | 51.26830 | -0.80641 | 5978 ft | 268 kts | 335° |
| 2026-04-26 20:14 | 51.28517 | -0.81894 | 6481 ft | 270 kts | 335° |
| 2026-04-26 20:15 | 51.29936 | -0.82947 | 6899 ft | 271 kts | 335° |
| 2026-04-26 20:15 | 51.31654 | -0.84222 | 7408 ft | 273 kts | 335° |
| 2026-04-26 20:15 | 51.33340 | -0.85473 | 7902 ft | 275 kts | 335° |
| 2026-04-26 20:15 | 51.35096 | -0.86775 | 8232 ft | 278 kts | 335° |
| 2026-04-26 20:16 | 51.36805 | -0.88042 | 8296 ft | 278 kts | 335° |
| 2026-04-26 20:16 | 51.38572 | -0.89353 | 8291 ft | 277 kts | 335° |
| 2026-04-26 20:16 | 51.40339 | -0.90663 | 8287 ft | 276 kts | 335° |
| 2026-04-26 20:16 | 51.42082 | -0.91956 | 8286 ft | 277 kts | 335° |
| 2026-04-26 20:17 | 51.43807 | -0.93236 | 8264 ft | 276 kts | 335° |
| 2026-04-26 20:17 | 51.45411 | -0.94428 | 8255 ft | 275 kts | 335° |
| 2026-04-26 20:17 | 51.47190 | -0.95751 | 8266 ft | 276 kts | 335° |
| 2026-04-26 20:17 | 51.48357 | -0.96620 | 8292 ft | 275 kts | 335° |
| 2026-04-26 20:18 | 51.50684 | -0.98142 | 8264 ft | 274 kts | 348° |
| 2026-04-26 20:18 | 51.52625 | -0.98459 | 8266 ft | 275 kts | 356° |
| 2026-04-26 20:18 | 51.54562 | -0.98589 | 8261 ft | 275 kts | 357° |
| 2026-04-26 20:18 | 51.56470 | -0.98710 | 8279 ft | 276 kts | 357° |
| 2026-04-26 20:19 | 51.58400 | -0.98835 | 8276 ft | 276 kts | 357° |
| 2026-04-26 20:19 | 51.60304 | -0.98957 | 8272 ft | 276 kts | 357° |
| 2026-04-26 20:19 | 51.62260 | -0.99084 | 8273 ft | 276 kts | 357° |
| 2026-04-26 20:19 | 51.64180 | -0.99208 | 8272 ft | 276 kts | 357° |
| 2026-04-26 20:20 | 51.66106 | -0.99333 | 8273 ft | 276 kts | 357° |
| 2026-04-26 20:20 | 51.68034 | -0.99077 | 8260 ft | 278 kts | 16° |
| 2026-04-26 20:20 | 51.69822 | -0.97843 | 7950 ft | 280 kts | 25° |
| 2026-04-26 20:20 | 51.71546 | -0.96467 | 7570 ft | 277 kts | 26° |
| 2026-04-26 20:21 | 51.73249 | -0.95102 | 7201 ft | 271 kts | 26° |
| 2026-04-26 20:21 | 51.74947 | -0.93740 | 6824 ft | 266 kts | 26° |
| 2026-04-26 20:21 | 51.76566 | -0.92371 | 6474 ft | 262 kts | 33° |
| 2026-04-26 20:21 | 51.77786 | -0.90255 | 6195 ft | 255 kts | 60° |
| 2026-04-26 20:22 | 51.78396 | -0.87562 | 5942 ft | 252 kts | 72° |
| 2026-04-26 20:22 | 51.78899 | -0.84813 | 5729 ft | 254 kts | 72° |
| 2026-04-26 20:22 | 51.79409 | -0.82072 | 5531 ft | 254 kts | 72° |
| 2026-04-26 20:22 | 51.79832 | -0.79798 | 5335 ft | 255 kts | 72° |
| 2026-04-26 20:23 | 51.80277 | -0.77396 | 5044 ft | 254 kts | 72° |
| 2026-04-26 20:23 | 51.80783 | -0.74661 | 4696 ft | 252 kts | 72° |
| 2026-04-26 20:23 | 51.81277 | -0.71986 | 4367 ft | 247 kts | 72° |
| 2026-04-26 20:23 | 51.81766 | -0.69335 | 4053 ft | 242 kts | 72° |
| 2026-04-26 20:24 | 51.82238 | -0.66775 | 3728 ft | 237 kts | 72° |
| 2026-04-26 20:24 | 51.82689 | -0.64275 | 3512 ft | 233 kts | 73° |
| 2026-04-26 20:24 | 51.83126 | -0.61770 | 3377 ft | 234 kts | 73° |
| 2026-04-26 20:24 | 51.83568 | -0.59215 | 3135 ft | 236 kts | 73° |
| 2026-04-26 20:25 | 51.84010 | -0.56680 | 2826 ft | 226 kts | 74° |
| 2026-04-26 20:25 | 51.84150 | -0.55878 | 2743 ft | 218 kts | 74° |
| 2026-04-26 20:25 | 51.84792 | -0.52200 | 2292 ft | 190 kts | 74° |
| 2026-04-26 20:25 | 51.85132 | -0.50255 | 2053 ft | 177 kts | 75° |
| 2026-04-26 20:26 | 51.85458 | -0.48388 | 1815 ft | 166 kts | 75° |
| 2026-04-26 20:26 | 51.85755 | -0.46686 | 1582 ft | 145 kts | 75° |
| 2026-04-26 20:26 | 51.86001 | -0.45284 | 1487 ft | 125 kts | 75° |
| 2026-04-26 20:26 | 51.86239 | -0.43917 | 1264 ft | 124 kts | 76° |
| 2026-04-26 20:27 | 51.86465 | -0.42611 | 1094 ft | 120 kts | 76° |
| 2026-04-26 20:27 | 51.86698 | -0.41277 | 932 ft | 127 kts | 75° |
| 2026-04-26 20:27 | 51.86950 | -0.39823 | 784 ft | 140 kts | 76° |
| 2026-04-26 20:27 | 51.87213 | -0.38311 | 568 ft | 135 kts | 76° |
| 2026-04-26 20:28 | 51.87432 | -0.37005 | 532 ft | 99 kts | 74° |
| 2026-04-26 20:28 | 51.87564 | -0.36264 | 521 ft | 45 kts | 74° |
| 2026-04-26 20:28 | 51.87627 | -0.35933 | 513 ft | 14 kts | 49° |
| 2026-04-26 20:28 | 51.87705 | -0.35932 | 509 ft | 14 kts | 341° |
| 2026-04-26 20:29 | 51.87784 | -0.36020 | 507 ft | 11 kts | 282° |
| 2026-04-26 20:29 | 51.87771 | -0.36160 | 510 ft | 14 kts | 253° |
| 2026-04-26 20:29 | 51.87741 | -0.36326 | 513 ft | 16 kts | 252° |
| 2026-04-26 20:29 | 51.87710 | -0.36508 | 518 ft | 17 kts | 256° |
| 2026-04-26 20:30 | 51.87675 | -0.36707 | 521 ft | 19 kts | 253° |
| 2026-04-26 20:30 | 51.87636 | -0.36923 | 527 ft | 14 kts | 253° |
| 2026-04-26 20:30 | 51.87608 | -0.37090 | 528 ft | 17 kts | 254° |
| 2026-04-26 20:30 | 51.87577 | -0.37284 | 529 ft | 14 kts | 264° |
| 2026-04-26 20:31 | 51.87605 | -0.37432 | 528 ft | 15 kts | 315° |
| 2026-04-26 20:31 | 51.87694 | -0.37547 | 527 ft | 17 kts | 301° |
| 2026-04-26 20:31 | 51.87750 | -0.37740 | 528 ft | 20 kts | 295° |
| 2026-04-26 20:31 | 51.87791 | -0.37881 | 529 ft | 11 kts | 299° |
| 2026-04-26 20:32 | 51.87844 | -0.37994 | 527 ft | 11 kts | 313° |
| 2026-04-26 20:32 | 51.87838 | -0.38113 | 523 ft | 5 kts | 194° |
| 2026-04-26 20:32 | 51.87830 | -0.38101 | 523 ft | 0 kts | 59° |
| 2026-04-26 20:32 | 51.87833 | -0.38097 | 523 ft | 0 kts | 36° |